sensor_id;sensor_type;location;lat;lon;timestamp;temperature;humidity
360;DHT22;168;48.872;9.226;2024-02-21T00:00:56;9.10;92.90
360;DHT22;168;48.872;9.226;2024-02-21T00:03:24;9.10;92.80
360;DHT22;168;48.872;9.226;2024-02-21T00:05:51;9.10;92.50
360;DHT22;168;48.872;9.226;2024-02-21T00:08:18;9.10;92.40
360;DHT22;168;48.872;9.226;2024-02-21T00:10:46;9.00;92.60
360;DHT22;168;48.872;9.226;2024-02-21T00:13:14;9.00;93.00
360;DHT22;168;48.872;9.226;2024-02-21T00:15:42;9.00;93.00
360;DHT22;168;48.872;9.226;2024-02-21T00:18:09;9.00;93.00
360;DHT22;168;48.872;9.226;2024-02-21T00:20:36;9.00;93.20
360;DHT22;168;48.872;9.226;2024-02-21T00:23:04;9.00;93.00
360;DHT22;168;48.872;9.226;2024-02-21T00:25:32;9.00;92.90
360;DHT22;168;48.872;9.226;2024-02-21T00:27:59;9.10;93.20
360;DHT22;168;48.872;9.226;2024-02-21T00:30:28;9.10;93.00
360;DHT22;168;48.872;9.226;2024-02-21T00:32:55;9.10;93.00
360;DHT22;168;48.872;9.226;2024-02-21T00:35:22;9.10;92.80
360;DHT22;168;48.872;9.226;2024-02-21T00:37:50;9.20;92.70
360;DHT22;168;48.872;9.226;2024-02-21T00:40:18;9.20;92.10
360;DHT22;168;48.872;9.226;2024-02-21T00:42:46;9.20;92.30
360;DHT22;168;48.872;9.226;2024-02-21T00:45:14;9.20;92.20
360;DHT22;168;48.872;9.226;2024-02-21T00:47:42;9.20;92.00
360;DHT22;168;48.872;9.226;2024-02-21T00:50:09;9.20;92.40
360;DHT22;168;48.872;9.226;2024-02-21T00:52:37;9.20;92.30
360;DHT22;168;48.872;9.226;2024-02-21T00:55:05;9.20;92.30
360;DHT22;168;48.872;9.226;2024-02-21T00:57:32;9.10;92.40
360;DHT22;168;48.872;9.226;2024-02-21T00:59:59;9.00;92.70
360;DHT22;168;48.872;9.226;2024-02-21T01:02:27;9.10;92.90
360;DHT22;168;48.872;9.226;2024-02-21T01:04:55;9.00;92.90
360;DHT22;168;48.872;9.226;2024-02-21T01:07:23;9.10;93.00
360;DHT22;168;48.872;9.226;2024-02-21T01:09:50;9.00;93.00
360;DHT22;168;48.872;9.226;2024-02-21T01:12:18;9.00;93.00
360;DHT22;168;48.872;9.226;2024-02-21T01:14:46;9.10;92.90
360;DHT22;168;48.872;9.226;2024-02-21T01:17:13;9.20;92.40
360;DHT22;168;48.872;9.226;2024-02-21T01:19:40;9.10;92.50
360;DHT22;168;48.872;9.226;2024-02-21T01:22:09;9.20;92.40
360;DHT22;168;48.872;9.226;2024-02-21T01:24:36;9.00;92.70
360;DHT22;168;48.872;9.226;2024-02-21T01:27:04;9.00;93.00
360;DHT22;168;48.872;9.226;2024-02-21T01:29:31;8.90;93.60
360;DHT22;168;48.872;9.226;2024-02-21T01:31:59;8.90;93.70
360;DHT22;168;48.872;9.226;2024-02-21T01:34:26;8.90;93.70
360;DHT22;168;48.872;9.226;2024-02-21T01:36:53;9.00;93.50
360;DHT22;168;48.872;9.226;2024-02-21T01:39:22;9.00;93.30
360;DHT22;168;48.872;9.226;2024-02-21T01:41:49;9.00;93.00
360;DHT22;168;48.872;9.226;2024-02-21T01:44:16;9.00;92.80
360;DHT22;168;48.872;9.226;2024-02-21T01:46:44;9.00;92.80
360;DHT22;168;48.872;9.226;2024-02-21T01:49:11;9.00;92.70
360;DHT22;168;48.872;9.226;2024-02-21T01:51:39;9.00;92.70
360;DHT22;168;48.872;9.226;2024-02-21T01:54:06;9.00;92.60
360;DHT22;168;48.872;9.226;2024-02-21T01:56:35;9.00;92.80
360;DHT22;168;48.872;9.226;2024-02-21T01:59:02;9.00;92.90
360;DHT22;168;48.872;9.226;2024-02-21T02:01:30;9.00;92.50
360;DHT22;168;48.872;9.226;2024-02-21T02:03:57;9.00;92.50
360;DHT22;168;48.872;9.226;2024-02-21T02:06:26;8.90;92.80
360;DHT22;168;48.872;9.226;2024-02-21T02:08:53;9.00;92.90
360;DHT22;168;48.872;9.226;2024-02-21T02:11:21;9.00;93.10
360;DHT22;168;48.872;9.226;2024-02-21T02:13:49;9.00;93.20
360;DHT22;168;48.872;9.226;2024-02-21T02:16:17;9.00;92.90
360;DHT22;168;48.872;9.226;2024-02-21T02:18:44;9.10;92.60
360;DHT22;168;48.872;9.226;2024-02-21T02:21:22;9.10;92.60
360;DHT22;168;48.872;9.226;2024-02-21T02:23:52;9.10;92.40
360;DHT22;168;48.872;9.226;2024-02-21T02:26:19;9.20;92.10
360;DHT22;168;48.872;9.226;2024-02-21T02:28:46;9.20;91.80
360;DHT22;168;48.872;9.226;2024-02-21T02:31:14;9.30;91.80
360;DHT22;168;48.872;9.226;2024-02-21T02:33:42;9.20;91.70
360;DHT22;168;48.872;9.226;2024-02-21T02:36:11;9.20;92.20
360;DHT22;168;48.872;9.226;2024-02-21T02:38:38;9.20;92.50
360;DHT22;168;48.872;9.226;2024-02-21T02:41:07;9.30;91.90
360;DHT22;168;48.872;9.226;2024-02-21T02:43:34;9.30;91.70
360;DHT22;168;48.872;9.226;2024-02-21T02:46:03;9.30;91.40
360;DHT22;168;48.872;9.226;2024-02-21T02:48:30;9.40;91.10
360;DHT22;168;48.872;9.226;2024-02-21T02:50:57;9.40;91.30
360;DHT22;168;48.872;9.226;2024-02-21T02:53:25;9.40;91.60
360;DHT22;168;48.872;9.226;2024-02-21T02:55:53;9.40;92.50
360;DHT22;168;48.872;9.226;2024-02-21T02:58:22;9.30;93.00
360;DHT22;168;48.872;9.226;2024-02-21T03:00:50;9.30;92.80
360;DHT22;168;48.872;9.226;2024-02-21T03:03:17;9.20;92.80
360;DHT22;168;48.872;9.226;2024-02-21T03:05:46;9.20;92.80
360;DHT22;168;48.872;9.226;2024-02-21T03:08:13;9.10;93.30
360;DHT22;168;48.872;9.226;2024-02-21T03:10:41;9.10;93.40
360;DHT22;168;48.872;9.226;2024-02-21T03:13:08;9.30;92.80
360;DHT22;168;48.872;9.226;2024-02-21T03:15:37;9.20;94.30
360;DHT22;168;48.872;9.226;2024-02-21T03:18:04;9.10;95.10
360;DHT22;168;48.872;9.226;2024-02-21T03:20:32;9.10;95.70
360;DHT22;168;48.872;9.226;2024-02-21T03:22:59;9.10;96.10
360;DHT22;168;48.872;9.226;2024-02-21T03:25:26;9.10;95.40
360;DHT22;168;48.872;9.226;2024-02-21T03:27:53;9.00;96.00
360;DHT22;168;48.872;9.226;2024-02-21T03:30:21;9.00;96.50
360;DHT22;168;48.872;9.226;2024-02-21T03:32:49;9.10;96.70
360;DHT22;168;48.872;9.226;2024-02-21T03:35:17;9.00;96.60
360;DHT22;168;48.872;9.226;2024-02-21T03:37:45;9.10;96.70
360;DHT22;168;48.872;9.226;2024-02-21T03:40:12;9.00;96.90
360;DHT22;168;48.872;9.226;2024-02-21T03:42:39;9.10;97.00
360;DHT22;168;48.872;9.226;2024-02-21T03:45:08;9.10;96.90
360;DHT22;168;48.872;9.226;2024-02-21T03:47:35;9.10;96.90
360;DHT22;168;48.872;9.226;2024-02-21T03:50:05;9.10;96.90
360;DHT22;168;48.872;9.226;2024-02-21T03:52:32;9.10;96.90
360;DHT22;168;48.872;9.226;2024-02-21T03:55:00;9.10;96.60
360;DHT22;168;48.872;9.226;2024-02-21T03:57:27;9.10;96.40
360;DHT22;168;48.872;9.226;2024-02-21T03:59:54;9.10;96.40
360;DHT22;168;48.872;9.226;2024-02-21T04:02:22;9.10;96.50
360;DHT22;168;48.872;9.226;2024-02-21T04:04:49;9.20;96.60
360;DHT22;168;48.872;9.226;2024-02-21T04:07:18;9.10;96.20
360;DHT22;168;48.872;9.226;2024-02-21T04:09:45;9.10;95.80
360;DHT22;168;48.872;9.226;2024-02-21T04:12:12;9.10;95.50
360;DHT22;168;48.872;9.226;2024-02-21T04:14:39;9.10;94.70
360;DHT22;168;48.872;9.226;2024-02-21T04:17:07;9.10;94.60
360;DHT22;168;48.872;9.226;2024-02-21T04:19:34;9.00;94.60
360;DHT22;168;48.872;9.226;2024-02-21T04:22:01;8.90;94.60
360;DHT22;168;48.872;9.226;2024-02-21T04:24:30;8.90;95.10
360;DHT22;168;48.872;9.226;2024-02-21T04:26:57;8.90;95.70
360;DHT22;168;48.872;9.226;2024-02-21T04:29:24;8.80;95.80
360;DHT22;168;48.872;9.226;2024-02-21T04:31:53;8.80;95.00
360;DHT22;168;48.872;9.226;2024-02-21T04:34:21;8.80;94.50
360;DHT22;168;48.872;9.226;2024-02-21T04:36:48;8.80;94.30
360;DHT22;168;48.872;9.226;2024-02-21T04:39:15;8.70;94.10
360;DHT22;168;48.872;9.226;2024-02-21T04:41:44;8.60;94.40
360;DHT22;168;48.872;9.226;2024-02-21T04:44:11;8.50;95.10
360;DHT22;168;48.872;9.226;2024-02-21T04:46:42;8.50;95.60
360;DHT22;168;48.872;9.226;2024-02-21T04:49:09;8.40;95.50
360;DHT22;168;48.872;9.226;2024-02-21T04:51:37;8.50;95.00
360;DHT22;168;48.872;9.226;2024-02-21T04:54:04;8.40;94.80
360;DHT22;168;48.872;9.226;2024-02-21T04:56:31;8.40;94.50
360;DHT22;168;48.872;9.226;2024-02-21T04:59:00;8.40;94.60
360;DHT22;168;48.872;9.226;2024-02-21T05:01:28;8.30;95.10
360;DHT22;168;48.872;9.226;2024-02-21T05:03:55;8.10;96.00
360;DHT22;168;48.872;9.226;2024-02-21T05:06:23;8.10;96.10
360;DHT22;168;48.872;9.226;2024-02-21T05:08:50;8.10;96.40
360;DHT22;168;48.872;9.226;2024-02-21T05:11:17;8.00;96.40
360;DHT22;168;48.872;9.226;2024-02-21T05:13:44;8.00;97.20
360;DHT22;168;48.872;9.226;2024-02-21T05:16:13;8.00;97.60
360;DHT22;168;48.872;9.226;2024-02-21T05:18:40;8.00;97.40
360;DHT22;168;48.872;9.226;2024-02-21T05:21:09;8.00;97.40
360;DHT22;168;48.872;9.226;2024-02-21T05:23:36;8.00;97.40
360;DHT22;168;48.872;9.226;2024-02-21T05:26:05;7.90;97.30
360;DHT22;168;48.872;9.226;2024-02-21T05:28:33;7.90;97.30
360;DHT22;168;48.872;9.226;2024-02-21T05:31:00;7.90;97.30
360;DHT22;168;48.872;9.226;2024-02-21T05:33:29;7.90;97.30
360;DHT22;168;48.872;9.226;2024-02-21T05:35:56;7.80;97.40
360;DHT22;168;48.872;9.226;2024-02-21T05:38:24;7.80;97.40
360;DHT22;168;48.872;9.226;2024-02-21T05:40:52;7.80;97.40
360;DHT22;168;48.872;9.226;2024-02-21T05:43:19;7.80;97.50
360;DHT22;168;48.872;9.226;2024-02-21T05:45:46;7.70;97.60
360;DHT22;168;48.872;9.226;2024-02-21T05:48:14;7.70;97.70
360;DHT22;168;48.872;9.226;2024-02-21T05:50:43;7.70;97.90
360;DHT22;168;48.872;9.226;2024-02-21T05:53:10;7.70;98.00
360;DHT22;168;48.872;9.226;2024-02-21T05:55:39;7.70;97.90
360;DHT22;168;48.872;9.226;2024-02-21T05:58:06;7.70;98.00
360;DHT22;168;48.872;9.226;2024-02-21T06:00:37;7.70;98.00
360;DHT22;168;48.872;9.226;2024-02-21T06:03:04;7.60;97.90
360;DHT22;168;48.872;9.226;2024-02-21T06:05:37;7.60;97.50
360;DHT22;168;48.872;9.226;2024-02-21T06:08:06;7.60;97.00
360;DHT22;168;48.872;9.226;2024-02-21T06:10:35;7.60;96.50
360;DHT22;168;48.872;9.226;2024-02-21T06:13:02;7.70;95.80
360;DHT22;168;48.872;9.226;2024-02-21T06:15:30;7.60;95.70
360;DHT22;168;48.872;9.226;2024-02-21T06:17:57;7.60;95.80
360;DHT22;168;48.872;9.226;2024-02-21T06:20:25;7.50;96.00
360;DHT22;168;48.872;9.226;2024-02-21T06:22:53;7.40;96.70
360;DHT22;168;48.872;9.226;2024-02-21T06:25:22;7.40;97.20
360;DHT22;168;48.872;9.226;2024-02-21T06:27:58;7.30;97.70
360;DHT22;168;48.872;9.226;2024-02-21T06:30:26;7.30;97.70
360;DHT22;168;48.872;9.226;2024-02-21T06:32:53;7.40;97.10
360;DHT22;168;48.872;9.226;2024-02-21T06:35:22;7.40;96.00
360;DHT22;168;48.872;9.226;2024-02-21T06:37:50;7.40;95.70
360;DHT22;168;48.872;9.226;2024-02-21T06:40:17;7.40;95.80
360;DHT22;168;48.872;9.226;2024-02-21T06:42:46;7.40;95.50
360;DHT22;168;48.872;9.226;2024-02-21T06:45:14;7.40;95.20
360;DHT22;168;48.872;9.226;2024-02-21T06:47:41;7.40;96.00
360;DHT22;168;48.872;9.226;2024-02-21T06:50:09;7.50;95.80
360;DHT22;168;48.872;9.226;2024-02-21T06:52:36;7.50;95.50
360;DHT22;168;48.872;9.226;2024-02-21T06:55:04;7.50;95.50
360;DHT22;168;48.872;9.226;2024-02-21T06:57:31;7.40;95.80
360;DHT22;168;48.872;9.226;2024-02-21T07:00:00;7.40;95.90
360;DHT22;168;48.872;9.226;2024-02-21T07:02:28;7.50;95.60
360;DHT22;168;48.872;9.226;2024-02-21T07:04:55;7.50;95.80
360;DHT22;168;48.872;9.226;2024-02-21T07:07:22;7.60;95.50
360;DHT22;168;48.872;9.226;2024-02-21T07:09:50;7.70;95.50
360;DHT22;168;48.872;9.226;2024-02-21T07:12:17;7.80;95.20
360;DHT22;168;48.872;9.226;2024-02-21T07:14:45;7.90;94.20
360;DHT22;168;48.872;9.226;2024-02-21T07:17:13;8.00;94.00
360;DHT22;168;48.872;9.226;2024-02-21T07:19:41;8.00;93.80
360;DHT22;168;48.872;9.226;2024-02-21T07:22:08;8.00;93.50
360;DHT22;168;48.872;9.226;2024-02-21T07:24:35;8.10;93.00
360;DHT22;168;48.872;9.226;2024-02-21T07:27:04;8.20;93.10
360;DHT22;168;48.872;9.226;2024-02-21T07:29:31;8.20;93.30
360;DHT22;168;48.872;9.226;2024-02-21T07:31:58;8.20;93.40
360;DHT22;168;48.872;9.226;2024-02-21T07:34:27;8.40;92.70
360;DHT22;168;48.872;9.226;2024-02-21T07:36:54;8.60;91.80
360;DHT22;168;48.872;9.226;2024-02-21T07:39:21;8.60;91.40
360;DHT22;168;48.872;9.226;2024-02-21T07:41:49;8.70;91.40
360;DHT22;168;48.872;9.226;2024-02-21T07:44:16;8.80;91.00
360;DHT22;168;48.872;9.226;2024-02-21T07:46:43;8.90;90.70
360;DHT22;168;48.872;9.226;2024-02-21T07:49:12;9.00;89.70
360;DHT22;168;48.872;9.226;2024-02-21T07:51:40;9.10;89.40
360;DHT22;168;48.872;9.226;2024-02-21T07:54:08;9.10;89.70
360;DHT22;168;48.872;9.226;2024-02-21T07:56:35;9.30;89.10
360;DHT22;168;48.872;9.226;2024-02-21T07:59:02;9.40;88.50
360;DHT22;168;48.872;9.226;2024-02-21T08:01:30;9.50;89.80
360;DHT22;168;48.872;9.226;2024-02-21T08:03:57;9.60;90.10
360;DHT22;168;48.872;9.226;2024-02-21T08:06:25;9.70;90.00
360;DHT22;168;48.872;9.226;2024-02-21T08:08:53;9.80;89.60
360;DHT22;168;48.872;9.226;2024-02-21T08:11:21;9.90;89.20
360;DHT22;168;48.872;9.226;2024-02-21T08:13:48;10.00;88.00
360;DHT22;168;48.872;9.226;2024-02-21T08:16:15;10.20;87.30
360;DHT22;168;48.872;9.226;2024-02-21T08:18:44;10.30;86.70
360;DHT22;168;48.872;9.226;2024-02-21T08:21:11;10.50;85.40
360;DHT22;168;48.872;9.226;2024-02-21T08:23:38;10.70;85.30
360;DHT22;168;48.872;9.226;2024-02-21T08:26:07;10.90;83.10
360;DHT22;168;48.872;9.226;2024-02-21T08:28:34;11.10;81.50
360;DHT22;168;48.872;9.226;2024-02-21T08:31:02;11.00;80.70
360;DHT22;168;48.872;9.226;2024-02-21T08:33:29;11.00;80.30
360;DHT22;168;48.872;9.226;2024-02-21T08:35:56;11.10;80.30
360;DHT22;168;48.872;9.226;2024-02-21T08:38:24;11.10;80.40
360;DHT22;168;48.872;9.226;2024-02-21T08:40:51;11.20;80.10
360;DHT22;168;48.872;9.226;2024-02-21T08:43:20;11.20;79.70
360;DHT22;168;48.872;9.226;2024-02-21T08:45:48;11.20;80.40
360;DHT22;168;48.872;9.226;2024-02-21T08:48:15;11.20;80.90
360;DHT22;168;48.872;9.226;2024-02-21T08:50:42;11.30;81.40
360;DHT22;168;48.872;9.226;2024-02-21T08:53:10;11.40;79.80
360;DHT22;168;48.872;9.226;2024-02-21T08:55:37;11.50;78.70
360;DHT22;168;48.872;9.226;2024-02-21T08:58:04;11.60;79.40
360;DHT22;168;48.872;9.226;2024-02-21T09:00:33;11.70;78.40
360;DHT22;168;48.872;9.226;2024-02-21T09:03:00;11.70;79.00
360;DHT22;168;48.872;9.226;2024-02-21T09:05:28;11.90;77.20
360;DHT22;168;48.872;9.226;2024-02-21T09:07:56;11.90;76.80
360;DHT22;168;48.872;9.226;2024-02-21T09:10:23;11.80;78.00
360;DHT22;168;48.872;9.226;2024-02-21T09:12:50;11.90;78.50
360;DHT22;168;48.872;9.226;2024-02-21T09:15:17;11.90;78.60
360;DHT22;168;48.872;9.226;2024-02-21T09:17:46;11.90;78.30
360;DHT22;168;48.872;9.226;2024-02-21T09:20:13;12.10;78.60
360;DHT22;168;48.872;9.226;2024-02-21T09:22:42;12.20;77.60
360;DHT22;168;48.872;9.226;2024-02-21T09:25:09;12.30;78.00
360;DHT22;168;48.872;9.226;2024-02-21T09:27:38;12.30;76.70
360;DHT22;168;48.872;9.226;2024-02-21T09:30:06;12.40;76.60
360;DHT22;168;48.872;9.226;2024-02-21T09:32:33;12.50;75.70
360;DHT22;168;48.872;9.226;2024-02-21T09:35:02;12.60;75.00
360;DHT22;168;48.872;9.226;2024-02-21T09:37:31;12.70;75.30
360;DHT22;168;48.872;9.226;2024-02-21T09:39:58;12.70;75.70
360;DHT22;168;48.872;9.226;2024-02-21T09:42:30;12.80;75.10
360;DHT22;168;48.872;9.226;2024-02-21T09:45:02;12.80;73.90
360;DHT22;168;48.872;9.226;2024-02-21T09:47:35;12.90;74.60
360;DHT22;168;48.872;9.226;2024-02-21T09:50:08;13.00;73.60
360;DHT22;168;48.872;9.226;2024-02-21T09:52:36;13.10;72.40
360;DHT22;168;48.872;9.226;2024-02-21T09:55:06;13.20;72.70
360;DHT22;168;48.872;9.226;2024-02-21T09:57:34;13.20;73.20
360;DHT22;168;48.872;9.226;2024-02-21T10:00:02;13.30;73.30
360;DHT22;168;48.872;9.226;2024-02-21T10:02:33;13.30;72.70
360;DHT22;168;48.872;9.226;2024-02-21T10:05:01;13.30;72.50
360;DHT22;168;48.872;9.226;2024-02-21T10:07:32;13.40;73.30
360;DHT22;168;48.872;9.226;2024-02-21T10:10:03;13.60;72.90
360;DHT22;168;48.872;9.226;2024-02-21T10:12:30;13.60;70.60
360;DHT22;168;48.872;9.226;2024-02-21T10:15:01;13.70;71.60
360;DHT22;168;48.872;9.226;2024-02-21T10:17:28;13.80;69.80
360;DHT22;168;48.872;9.226;2024-02-21T10:20:06;13.90;69.30
360;DHT22;168;48.872;9.226;2024-02-21T10:22:35;14.00;69.00
360;DHT22;168;48.872;9.226;2024-02-21T10:25:08;14.00;69.00
360;DHT22;168;48.872;9.226;2024-02-21T10:27:36;14.00;68.40
360;DHT22;168;48.872;9.226;2024-02-21T10:30:05;14.00;67.70
360;DHT22;168;48.872;9.226;2024-02-21T10:32:32;14.20;67.70
360;DHT22;168;48.872;9.226;2024-02-21T10:35:03;14.30;67.40
360;DHT22;168;48.872;9.226;2024-02-21T10:37:31;14.40;66.60
360;DHT22;168;48.872;9.226;2024-02-21T10:40:00;14.40;67.30
360;DHT22;168;48.872;9.226;2024-02-21T10:42:29;14.50;67.30
360;DHT22;168;48.872;9.226;2024-02-21T10:45:01;14.60;67.30
360;DHT22;168;48.872;9.226;2024-02-21T10:47:32;14.70;67.00
360;DHT22;168;48.872;9.226;2024-02-21T10:50:03;14.80;66.30
360;DHT22;168;48.872;9.226;2024-02-21T10:52:44;15.00;67.00
360;DHT22;168;48.872;9.226;2024-02-21T10:55:20;15.20;67.40
360;DHT22;168;48.872;9.226;2024-02-21T10:57:50;15.40;66.70
360;DHT22;168;48.872;9.226;2024-02-21T11:00:18;15.60;66.40
360;DHT22;168;48.872;9.226;2024-02-21T11:02:46;15.80;65.70
360;DHT22;168;48.872;9.226;2024-02-21T11:05:15;15.80;66.00
360;DHT22;168;48.872;9.226;2024-02-21T11:07:43;15.90;65.30
360;DHT22;168;48.872;9.226;2024-02-21T11:10:23;16.00;65.00
360;DHT22;168;48.872;9.226;2024-02-21T11:12:53;16.10;64.40
360;DHT22;168;48.872;9.226;2024-02-21T11:15:25;16.20;64.30
360;DHT22;168;48.872;9.226;2024-02-21T11:17:56;16.30;64.20
360;DHT22;168;48.872;9.226;2024-02-21T11:20:32;16.40;63.00
360;DHT22;168;48.872;9.226;2024-02-21T11:23:00;16.50;62.60
360;DHT22;168;48.872;9.226;2024-02-21T11:25:29;16.50;62.70
360;DHT22;168;48.872;9.226;2024-02-21T11:28:00;16.50;62.40
360;DHT22;168;48.872;9.226;2024-02-21T11:30:29;16.50;62.00
360;DHT22;168;48.872;9.226;2024-02-21T11:33:00;16.50;62.90
360;DHT22;168;48.872;9.226;2024-02-21T11:35:31;16.60;62.30
360;DHT22;168;48.872;9.226;2024-02-21T11:38:09;16.60;61.40
360;DHT22;168;48.872;9.226;2024-02-21T11:40:43;16.60;60.70
360;DHT22;168;48.872;9.226;2024-02-21T11:43:10;16.60;60.50
360;DHT22;168;48.872;9.226;2024-02-21T11:45:38;16.60;62.10
360;DHT22;168;48.872;9.226;2024-02-21T11:48:06;16.60;61.40
360;DHT22;168;48.872;9.226;2024-02-21T11:50:34;16.60;60.00
360;DHT22;168;48.872;9.226;2024-02-21T11:53:03;16.40;60.10
360;DHT22;168;48.872;9.226;2024-02-21T11:55:30;16.40;60.60
360;DHT22;168;48.872;9.226;2024-02-21T11:57:59;16.30;60.40
360;DHT22;168;48.872;9.226;2024-02-21T12:00:26;16.30;60.40
360;DHT22;168;48.872;9.226;2024-02-21T12:02:54;16.30;60.40
360;DHT22;168;48.872;9.226;2024-02-21T12:05:27;16.40;61.20
360;DHT22;168;48.872;9.226;2024-02-21T12:07:55;16.40;61.50
360;DHT22;168;48.872;9.226;2024-02-21T12:10:25;16.60;60.60
360;DHT22;168;48.872;9.226;2024-02-21T12:12:53;16.60;60.00
360;DHT22;168;48.872;9.226;2024-02-21T12:15:25;16.70;59.80
360;DHT22;168;48.872;9.226;2024-02-21T12:17:53;16.70;59.60
360;DHT22;168;48.872;9.226;2024-02-21T12:20:20;16.60;59.40
360;DHT22;168;48.872;9.226;2024-02-21T12:22:49;16.60;60.80
360;DHT22;168;48.872;9.226;2024-02-21T12:25:18;16.60;61.00
360;DHT22;168;48.872;9.226;2024-02-21T12:27:49;16.60;60.90
360;DHT22;168;48.872;9.226;2024-02-21T12:30:16;16.40;61.70
360;DHT22;168;48.872;9.226;2024-02-21T12:32:45;16.10;62.10
360;DHT22;168;48.872;9.226;2024-02-21T12:35:12;15.90;62.50
360;DHT22;168;48.872;9.226;2024-02-21T12:37:39;15.80;63.00
360;DHT22;168;48.872;9.226;2024-02-21T12:40:09;15.70;63.20
360;DHT22;168;48.872;9.226;2024-02-21T12:42:39;15.70;63.30
360;DHT22;168;48.872;9.226;2024-02-21T12:45:07;15.60;62.90
360;DHT22;168;48.872;9.226;2024-02-21T12:47:34;15.50;63.70
360;DHT22;168;48.872;9.226;2024-02-21T12:50:04;15.60;64.30
360;DHT22;168;48.872;9.226;2024-02-21T12:52:32;15.70;64.20
360;DHT22;168;48.872;9.226;2024-02-21T12:55:00;15.80;63.90
360;DHT22;168;48.872;9.226;2024-02-21T12:57:27;16.00;64.60
360;DHT22;168;48.872;9.226;2024-02-21T12:59:54;16.20;63.80
360;DHT22;168;48.872;9.226;2024-02-21T13:02:22;16.40;63.50
360;DHT22;168;48.872;9.226;2024-02-21T13:04:49;16.60;62.80
360;DHT22;168;48.872;9.226;2024-02-21T13:07:18;16.80;62.10
360;DHT22;168;48.872;9.226;2024-02-21T13:09:45;16.80;61.00
360;DHT22;168;48.872;9.226;2024-02-21T13:12:12;16.80;60.50
360;DHT22;168;48.872;9.226;2024-02-21T13:14:40;16.70;60.90
360;DHT22;168;48.872;9.226;2024-02-21T13:17:09;16.60;61.40
360;DHT22;168;48.872;9.226;2024-02-21T13:19:37;16.50;61.50
360;DHT22;168;48.872;9.226;2024-02-21T13:22:04;16.50;60.50
360;DHT22;168;48.872;9.226;2024-02-21T13:24:33;16.40;61.30
360;DHT22;168;48.872;9.226;2024-02-21T13:27:00;16.30;62.60
360;DHT22;168;48.872;9.226;2024-02-21T13:29:27;16.30;62.00
360;DHT22;168;48.872;9.226;2024-02-21T13:31:55;16.40;61.80
360;DHT22;168;48.872;9.226;2024-02-21T13:34:22;16.40;62.10
360;DHT22;168;48.872;9.226;2024-02-21T13:36:50;16.20;63.10
360;DHT22;168;48.872;9.226;2024-02-21T13:39:18;16.20;63.60
360;DHT22;168;48.872;9.226;2024-02-21T13:41:47;16.20;63.30
360;DHT22;168;48.872;9.226;2024-02-21T13:44:15;16.20;63.20
360;DHT22;168;48.872;9.226;2024-02-21T13:46:42;16.30;63.00
360;DHT22;168;48.872;9.226;2024-02-21T13:49:10;16.40;63.10
360;DHT22;168;48.872;9.226;2024-02-21T13:51:37;16.40;62.10
360;DHT22;168;48.872;9.226;2024-02-21T13:54:06;16.50;63.00
360;DHT22;168;48.872;9.226;2024-02-21T13:56:35;16.50;62.40
360;DHT22;168;48.872;9.226;2024-02-21T13:59:03;16.50;63.60
360;DHT22;168;48.872;9.226;2024-02-21T14:01:31;16.60;64.00
360;DHT22;168;48.872;9.226;2024-02-21T14:03:58;16.60;63.30
360;DHT22;168;48.872;9.226;2024-02-21T14:06:26;16.60;63.60
360;DHT22;168;48.872;9.226;2024-02-21T14:08:53;16.70;63.20
360;DHT22;168;48.872;9.226;2024-02-21T14:11:21;16.80;63.40
360;DHT22;168;48.872;9.226;2024-02-21T14:13:50;16.80;62.60
360;DHT22;168;48.872;9.226;2024-02-21T14:16:19;16.80;62.20
360;DHT22;168;48.872;9.226;2024-02-21T14:18:46;16.80;62.50
360;DHT22;168;48.872;9.226;2024-02-21T14:21:14;16.80;63.20
360;DHT22;168;48.872;9.226;2024-02-21T14:23:41;16.80;61.50
360;DHT22;168;48.872;9.226;2024-02-21T14:26:09;16.80;60.90
360;DHT22;168;48.872;9.226;2024-02-21T14:28:36;16.80;61.90
360;DHT22;168;48.872;9.226;2024-02-21T14:31:04;16.80;62.00
360;DHT22;168;48.872;9.226;2024-02-21T14:33:34;16.80;62.40
360;DHT22;168;48.872;9.226;2024-02-21T14:36:02;16.80;62.60
360;DHT22;168;48.872;9.226;2024-02-21T14:38:29;16.70;61.70
360;DHT22;168;48.872;9.226;2024-02-21T14:40:56;16.70;60.40
360;DHT22;168;48.872;9.226;2024-02-21T14:43:24;16.60;60.80
360;DHT22;168;48.872;9.226;2024-02-21T14:45:52;16.60;61.60
360;DHT22;168;48.872;9.226;2024-02-21T14:48:19;16.60;62.40
360;DHT22;168;48.872;9.226;2024-02-21T14:50:49;16.60;61.80
360;DHT22;168;48.872;9.226;2024-02-21T14:53:16;16.60;62.00
360;DHT22;168;48.872;9.226;2024-02-21T14:55:44;16.60;61.40
360;DHT22;168;48.872;9.226;2024-02-21T14:58:10;16.60;61.60
360;DHT22;168;48.872;9.226;2024-02-21T15:00:38;16.60;62.70
360;DHT22;168;48.872;9.226;2024-02-21T15:03:05;16.60;63.00
360;DHT22;168;48.872;9.226;2024-02-21T15:05:34;16.60;63.60
360;DHT22;168;48.872;9.226;2024-02-21T15:08:04;16.50;62.80
360;DHT22;168;48.872;9.226;2024-02-21T15:10:34;16.40;63.50
360;DHT22;168;48.872;9.226;2024-02-21T15:13:01;16.30;64.10
360;DHT22;168;48.872;9.226;2024-02-21T15:15:29;16.30;64.40
360;DHT22;168;48.872;9.226;2024-02-21T15:17:56;16.20;64.00
360;DHT22;168;48.872;9.226;2024-02-21T15:20:24;16.20;63.70
360;DHT22;168;48.872;9.226;2024-02-21T15:22:51;16.30;64.00
360;DHT22;168;48.872;9.226;2024-02-21T15:25:20;16.20;63.90
360;DHT22;168;48.872;9.226;2024-02-21T15:27:47;16.20;64.80
360;DHT22;168;48.872;9.226;2024-02-21T15:30:16;16.20;64.10
360;DHT22;168;48.872;9.226;2024-02-21T15:32:43;16.20;64.00
360;DHT22;168;48.872;9.226;2024-02-21T15:35:10;16.10;63.90
360;DHT22;168;48.872;9.226;2024-02-21T15:37:37;16.10;60.90
360;DHT22;168;48.872;9.226;2024-02-21T15:40:06;16.10;58.50
360;DHT22;168;48.872;9.226;2024-02-21T15:42:35;16.00;58.30
360;DHT22;168;48.872;9.226;2024-02-21T15:45:04;15.90;57.00
360;DHT22;168;48.872;9.226;2024-02-21T15:47:33;15.80;55.50
360;DHT22;168;48.872;9.226;2024-02-21T15:50:00;15.70;54.80
360;DHT22;168;48.872;9.226;2024-02-21T15:52:28;15.60;54.10
360;DHT22;168;48.872;9.226;2024-02-21T15:54:55;15.50;53.80
360;DHT22;168;48.872;9.226;2024-02-21T15:57:23;15.50;53.30
360;DHT22;168;48.872;9.226;2024-02-21T15:59:51;15.40;53.80
360;DHT22;168;48.872;9.226;2024-02-21T16:02:20;15.30;54.10
360;DHT22;168;48.872;9.226;2024-02-21T16:04:47;15.20;55.00
360;DHT22;168;48.872;9.226;2024-02-21T16:07:14;15.10;55.20
360;DHT22;168;48.872;9.226;2024-02-21T16:09:42;15.10;55.50
360;DHT22;168;48.872;9.226;2024-02-21T16:12:10;15.00;55.20
360;DHT22;168;48.872;9.226;2024-02-21T16:14:37;15.00;55.80
360;DHT22;168;48.872;9.226;2024-02-21T16:17:07;15.00;55.50
360;DHT22;168;48.872;9.226;2024-02-21T16:19:36;15.00;55.90
360;DHT22;168;48.872;9.226;2024-02-21T16:22:03;14.80;56.60
360;DHT22;168;48.872;9.226;2024-02-21T16:24:31;14.80;57.40
360;DHT22;168;48.872;9.226;2024-02-21T16:26:58;14.70;57.80
360;DHT22;168;48.872;9.226;2024-02-21T16:29:27;14.60;57.80
360;DHT22;168;48.872;9.226;2024-02-21T16:31:55;14.70;58.30
360;DHT22;168;48.872;9.226;2024-02-21T16:34:23;14.60;58.70
360;DHT22;168;48.872;9.226;2024-02-21T16:36:50;14.50;60.30
360;DHT22;168;48.872;9.226;2024-02-21T16:39:18;14.50;60.10
360;DHT22;168;48.872;9.226;2024-02-21T16:41:45;14.40;60.60
360;DHT22;168;48.872;9.226;2024-02-21T16:44:15;14.40;61.30
360;DHT22;168;48.872;9.226;2024-02-21T16:46:42;14.40;62.90